createdAt,value
2022-12-06T04:11:16.892Z,76.83629788278732
2022-12-06T04:14:16.368Z,76.5080527385131
2022-12-06T04:18:21.988Z,76.64895145901951
2022-12-06T04:43:42.095Z,78.0795127779413
2022-12-06T04:44:16.308Z,78.38979782058624
2022-12-06T04:47:16.771Z,77.87245544293025
2022-12-06T04:51:16.528Z,77.17038651597035
2022-12-06T04:54:16.298Z,77.39269339487785
2022-12-06T04:57:16.851Z,77.32888162886435
2022-12-06T05:01:16.394Z,77.40491046635887
2022-12-06T05:04:16.647Z,77.23185942787545
2022-12-06T05:07:16.588Z,77.7282287109101
2022-12-06T05:11:16.592Z,78.25449069463252
2022-12-06T05:14:16.991Z,77.95115955986957
2022-12-06T05:17:16.844Z,78.38667305631506
2022-12-06T05:21:20.448Z,78.49095072583764
2022-12-06T05:24:17.269Z,79.0525095233371
2022-12-06T05:27:17.044Z,78.42398891195971
2022-12-06T05:31:16.697Z,77.66522574025026
2022-12-06T05:34:16.511Z,78.1474554994986
2022-12-06T05:37:16.456Z,78.88040871746
2022-12-06T05:41:17.540Z,79.03227971433397
2022-12-06T05:44:17.067Z,79.00771439935076
2022-12-06T05:47:16.671Z,78.91771455813316
2022-12-06T05:51:17.014Z,78.13761579362199
2022-12-06T05:54:17.393Z,78.12713048367272
2022-12-06T05:57:17.113Z,78.10929177310729
2022-12-06T06:01:16.129Z,77.86354449745927
2022-12-06T06:04:16.592Z,78.24277660484162
2022-12-06T06:07:16.461Z,78.47944114730706
2022-12-06T06:11:16.276Z,78.91566841489555
2022-12-06T06:14:16.868Z,78.51890478737849
2022-12-06T06:17:17.180Z,78.66846259829327
2022-12-06T06:21:16.807Z,79.08224425677152
2022-12-06T06:24:16.992Z,79.71912944091541
2022-12-06T06:27:17.096Z,79.23437940784854
2022-12-06T06:31:16.534Z,79.41539310805979
2022-12-06T06:34:16.594Z,79.33803023257835
2022-12-06T06:37:16.254Z,79.11784774013621
2022-12-06T06:41:16.209Z,79.03472572702121
2022-12-06T06:44:16.737Z,79.49023726637894
2022-12-06T06:47:16.468Z,79.71944889822448
2022-12-06T06:51:16.241Z,80.05883607151351
2022-12-06T06:54:16.713Z,80.12461596904826
2022-12-06T06:57:18.059Z,80.34407223157088
2022-12-06T07:01:18.032Z,80.21439267911926
2022-12-06T07:04:17.160Z,81.02834946168741
2022-12-06T07:07:20.999Z,81.4696100853991
2022-12-06T07:11:16.209Z,81.97893630390547
2022-12-06T07:14:16.387Z,82.22539807211635
2022-12-06T07:17:16.498Z,82.61092706786728
2022-12-06T07:21:17.110Z,83.41105316128417
2022-12-06T07:24:17.033Z,83.82095524648355
2022-12-06T07:27:17.127Z,84.16212155229692
2022-12-06T07:31:19.921Z,84.24141839167456
2022-12-06T07:34:17.148Z,84.34053622762086
2022-12-06T07:37:19.273Z,84.12371241010517
2022-12-06T07:51:15.812Z,84.01483165481814
2022-12-06T07:54:16.927Z,84.04210412995651
2022-12-06T07:57:16.340Z,84.54069645971707
2022-12-06T08:01:18.036Z,84.62399839642568
2022-12-06T08:04:19.004Z,84.79133372283104
2022-12-06T08:07:17.845Z,83.47957803120887
2022-12-06T08:11:16.858Z,82.6065397240394
2022-12-06T08:14:17.180Z,82.75369291363255
2022-12-06T08:17:17.126Z,83.17495064822499
2022-12-06T08:21:16.773Z,83.33764778755798
2022-12-06T08:24:16.328Z,83.54688739541459
2022-12-06T08:27:16.272Z,83.3077038063781
2022-12-06T08:31:20.324Z,82.75680340495677
2022-12-06T08:34:17.468Z,82.87449100865427
2022-12-06T08:37:17.160Z,82.54256499336263
2022-12-06T08:42:25.175Z,83.33988596593223
2022-12-06T08:44:18.275Z,84.10291481003304
2022-12-06T08:47:16.641Z,84.74159298345843
2022-12-06T08:51:16.670Z,83.9265125415148
2022-12-06T08:54:18.889Z,83.43643735840183
2022-12-06T08:57:17.273Z,82.648797349268
2022-12-06T09:01:18.558Z,79.85255341789924
2022-12-06T09:04:17.038Z,82.74652936183293
2022-12-06T09:07:16.700Z,83.28110871354677
2022-12-06T09:11:17.974Z,83.22111644696848
2022-12-06T09:14:21.826Z,81.20537765233718
2022-12-06T09:17:17.582Z,80.43811679210454
2022-12-06T09:21:19.906Z,81.77414014606506
2022-12-06T09:24:18.147Z,80.87735439918778
2022-12-06T09:27:18.915Z,83.74800415544694
2022-12-06T09:31:17.460Z,85.77981998384035
2022-12-06T09:34:17.242Z,86.48246226622719
2022-12-06T09:37:16.801Z,85.91609126940037
2022-12-06T09:41:31.904Z,84.1381507129357
2022-12-06T09:44:34.771Z,82.99336903004553
2022-12-06T09:47:28.422Z,82.22519055146185
2022-12-06T09:51:27.804Z,81.28876220835515
2022-12-06T09:54:33.694Z,80.3123690458434
2022-12-06T09:57:23.131Z,79.65324196011149
2022-12-06T10:01:28.275Z,76.72240604612492
2022-12-06T10:04:37.754Z,76.65268909736378
2022-12-06T10:07:27.810Z,74.65829062717414
2022-12-06T10:11:30.073Z,72.9181820669619
2022-12-06T10:14:30.826Z,74.5519402276559
2022-12-06T10:17:27.874Z,75.12607902373351
2022-12-06T10:21:25.175Z,71.59406167774681
2022-12-06T10:24:31.456Z,70.65984144763682
2022-12-06T10:27:23.157Z,70.74034566025044
2022-12-06T10:31:22.280Z,68.2824755726052
2022-12-06T10:34:21.087Z,67.88305063325755
2022-12-06T10:37:31.322Z,68.82726073236852
2022-12-06T10:41:22.724Z,64.10073423419543
2022-12-06T10:44:24.509Z,64.75791522703152
2022-12-06T10:47:22.509Z,66.02555139993366
2022-12-06T10:51:21.128Z,65.02785240183277
2022-12-06T10:54:25.839Z,63.33002746590483
2022-12-06T10:57:23.136Z,61.245030720422825
2022-12-06T11:01:21.016Z,59.744216612246845
2022-12-06T11:04:24.131Z,59.48750605786329
2022-12-06T11:07:21.806Z,60.91556709767509
2022-12-06T11:11:19.089Z,59.93594917541709
2022-12-06T11:14:23.204Z,61.18822214485032
2022-12-06T11:17:20.993Z,61.96159355875232
2022-12-06T11:21:23.637Z,61.00268459742717
2022-12-06T11:24:22.960Z,58.017311395107036
2022-12-06T11:27:21.792Z,59.0433277549677
2022-12-06T11:31:25.957Z,55.734870983019675
2022-12-06T11:34:27.045Z,55.59192391924903
2022-12-06T11:37:18.944Z,56.558358622889415
2022-12-06T11:41:21.260Z,54.79460692864663
2022-12-06T11:44:22.351Z,53.09473086589736
2022-12-06T11:47:20.956Z,53.36365492795327
2022-12-06T11:51:20.163Z,55.171179191308006
2022-12-06T11:54:25.345Z,55.58754809837385
2022-12-06T11:57:22.635Z,55.38116879260908
2022-12-06T12:01:16.076Z,55.5347730634584
2022-12-06T12:04:33.747Z,54.485720393299495
2022-12-06T12:07:22.202Z,54.950720508664006
2022-12-06T12:11:20.271Z,54.99993644827266
2022-12-06T12:14:23.702Z,53.77685168651708
2022-12-06T12:17:20.697Z,53.74831007418146
2022-12-06T12:21:27.474Z,55.48078793491192
2022-12-06T12:25:19.222Z,56.45409416854506
2022-12-06T12:27:33.659Z,56.917228740323644
2022-12-06T12:31:18.032Z,58.02166345763815
2022-12-06T12:34:19.772Z,56.929487725039266
2022-12-06T12:37:20.731Z,56.78848139365999
2022-12-06T12:41:28.519Z,57.01224848603322
2022-12-06T12:44:37.716Z,57.333051119395165
2022-12-06T12:47:18.493Z,57.06800735898426
2022-12-06T12:51:25.786Z,56.84702790335653
2022-12-06T12:54:24.090Z,55.60048466619032
2022-12-06T12:57:16.450Z,56.229516765653386
2022-12-06T13:01:27.535Z,55.202747403097966
2022-12-06T13:04:37.430Z,56.69226357073594
2022-12-06T13:07:21.079Z,55.586861528772744
2022-12-06T13:11:15.980Z,56.54181672340047
2022-12-06T13:14:19.490Z,56.19003003121826
2022-12-06T13:17:18.024Z,56.57220300601184
2022-12-06T13:21:21.466Z,57.36659579736603
2022-12-06T13:24:23.001Z,56.86122287986978
2022-12-06T13:27:20.017Z,57.82956321572267
2022-12-06T13:31:20.132Z,57.73675103098962
2022-12-06T13:34:23.817Z,58.32404302727685
2022-12-06T13:37:36.467Z,57.91129733615594
2022-12-06T13:42:39.043Z,56.88635192331796
2022-12-06T13:44:39.130Z,55.862684369945555
2022-12-06T13:47:50.158Z,55.4834240983654
2022-12-06T13:51:43.164Z,53.068665682164905
2022-12-06T13:54:32.522Z,50.68823457632428
2022-12-06T13:57:23.990Z,50.39121978446403
2022-12-06T14:11:20.097Z,51.32674336514073
2022-12-06T14:14:18.268Z,51.703704500637436
2022-12-06T14:17:38.191Z,51.83497782018541
2022-12-06T14:21:22.101Z,51.56033585091799
2022-12-06T14:24:34.363Z,52.75884538605467
2022-12-06T14:27:19.191Z,53.529344113449724
2022-12-06T14:31:22.171Z,54.29936523556733
2022-12-06T14:34:24.708Z,53.384994625619996
2022-12-06T14:37:20.940Z,54.24189041503595
2022-12-06T14:51:23.263Z,53.921262828393694
2022-12-06T14:54:17.853Z,54.004571179805126
2022-12-06T14:57:24.278Z,53.48490123893271
2022-12-06T15:01:21.243Z,56.55110726564595
2022-12-06T15:04:25.386Z,56.05253451995006
2022-12-06T15:07:32.456Z,55.06030856276044
2022-12-06T15:13:05.220Z,56.424039392894734
2022-12-06T15:14:18.777Z,54.888208471848046
2022-12-06T15:17:18.144Z,55.560654865624436
2022-12-06T15:21:17.059Z,55.65066604740135
2022-12-06T15:24:18.691Z,56.90871888182177
2022-12-06T15:27:17.598Z,56.80912385451132
2022-12-06T15:31:20.390Z,58.20031297971658
2022-12-06T15:34:24.880Z,58.393106555919054
2022-12-06T15:37:39.050Z,58.24835203202137
2022-12-06T15:41:18.103Z,60.22474013961936
2022-12-06T15:44:18.345Z,60.5603762224632
2022-12-06T15:47:17.344Z,61.140370069740555
2022-12-06T15:51:21.100Z,60.69732464926093
2022-12-06T15:54:19.996Z,61.175260297997085
2022-12-06T15:57:17.228Z,61.87565705378949
2022-12-06T16:01:19.324Z,61.931324493380615
2022-12-06T16:04:18.920Z,63.032915432474006
2022-12-06T16:07:19.431Z,63.11229901860209
2022-12-06T16:11:19.010Z,64.53490567484808
2022-12-06T16:14:16.426Z,65.3510601297639
2022-12-06T16:17:16.472Z,65.60918110984433
2022-12-06T16:21:23.119Z,66.17330988408102
2022-12-06T16:24:17.064Z,66.49923446265977
2022-12-06T16:27:16.901Z,66.45869767545548
2022-12-06T16:31:16.694Z,66.62782116790513
2022-12-06T16:34:17.992Z,66.7280185736837
2022-12-06T16:37:18.077Z,66.69190610036065
2022-12-06T16:41:19.858Z,67.903149938726
2022-12-06T16:44:16.798Z,67.99057545589436
2022-12-06T16:47:16.804Z,68.4897915120438
2022-12-06T16:51:16.192Z,68.49285371297937
2022-12-06T16:54:16.870Z,68.80029276452886
2022-12-06T16:57:16.615Z,69.30130948430171
2022-12-06T17:01:23.671Z,69.16497876316394
2022-12-06T17:04:17.984Z,69.28930009664965
2022-12-06T17:07:17.494Z,69.80037261525074
2022-12-06T17:12:21.255Z,69.7807733510984
2022-12-06T17:14:17.843Z,70.22185373344524
2022-12-06T17:17:19.159Z,70.7971583632038
2022-12-06T17:21:17.382Z,70.74816675584776
2022-12-06T17:24:18.532Z,70.99248078139064
2022-12-06T17:27:17.103Z,71.3097202599366
2022-12-06T17:31:16.449Z,71.37614383734933
2022-12-06T17:34:17.554Z,71.29172874528633
2022-12-06T17:37:16.922Z,71.82697197055755
2022-12-06T17:51:16.238Z,73.23510132368864
2022-12-06T17:54:17.164Z,73.50207952847254
2022-12-06T17:57:18.664Z,74.1227392132718
2022-12-06T18:01:16.884Z,74.48464781660982
2022-12-06T18:04:17.158Z,74.93118875235878
2022-12-06T18:07:17.493Z,74.83933849544017
2022-12-06T18:11:18.542Z,74.49529499270933
2022-12-06T18:14:17.464Z,74.64210739582316
2022-12-06T18:17:17.070Z,75.15452836000148
2022-12-06T18:21:17.940Z,75.13813344299541
2022-12-06T18:24:22.722Z,75.09990565240822
2022-12-06T18:27:17.716Z,75.10317303538365
2022-12-06T18:31:17.111Z,75.18376116017446
2022-12-06T18:34:17.081Z,75.62001556877135
2022-12-06T18:37:16.840Z,75.46669551031746
2022-12-06T18:41:18.362Z,75.628615724098
2022-12-06T18:44:16.831Z,75.82723133145585
2022-12-06T18:47:16.423Z,75.4891871128405
2022-12-06T18:51:18.924Z,76.22031824955619
2022-12-06T18:54:16.997Z,76.3034247943867
2022-12-06T18:57:16.831Z,76.93027616220901
2022-12-06T19:01:18.532Z,77.07904296929824
2022-12-06T19:04:18.849Z,77.59461033058071
2022-12-06T19:07:19.386Z,77.47413795623002
2022-12-06T19:11:19.252Z,77.64164370740818
2022-12-06T19:14:16.345Z,77.82761382807332
2022-12-06T19:17:16.263Z,78.17221801911676
2022-12-06T19:21:17.152Z,78.11623334990446
2022-12-06T19:24:18.977Z,78.23206170393718
2022-12-06T19:27:20.455Z,78.77498157464885
2022-12-06T19:31:16.886Z,78.69640007698315
2022-12-06T19:34:18.830Z,78.34466493158676
2022-12-06T19:37:17.564Z,78.2709773922788
2022-12-06T19:41:17.309Z,78.72639867958068
2022-12-06T19:44:16.313Z,79.15054363624351
2022-12-06T19:47:16.718Z,79.03521008982372
2022-12-06T19:51:16.702Z,79.04353198469767
2022-12-06T19:54:19.317Z,79.14572267602189
2022-12-06T19:57:16.658Z,79.50240092344042
2022-12-06T20:01:18.750Z,79.66238102892642
2022-12-06T20:04:18.304Z,79.68522342849509
2022-12-06T20:07:16.507Z,79.72566562030984
2022-12-06T20:12:03.621Z,79.3837108463802
2022-12-06T20:14:18.042Z,79.49699396091079
2022-12-06T20:17:19.479Z,79.30617229909883
2022-12-06T20:21:16.835Z,79.56196605486265
2022-12-06T20:24:19.143Z,79.88891908122969
2022-12-06T20:27:16.985Z,79.94954871725483
2022-12-06T20:31:19.153Z,79.60613784554407
2022-12-06T20:34:18.118Z,80.19764835081854
2022-12-06T20:37:16.870Z,80.6442079524758
2022-12-06T20:41:19.829Z,80.9865290775563
2022-12-06T20:44:17.688Z,81.29579822304908
2022-12-06T20:47:17.700Z,81.39769914666438
2022-12-06T20:51:19.906Z,81.31855943703289
2022-12-06T20:54:18.338Z,81.54756080432583
2022-12-06T20:57:17.265Z,81.33084199656429
2022-12-06T21:01:20.275Z,81.64868678340208
2022-12-06T21:04:17.073Z,81.94773593299706
2022-12-06T21:07:17.234Z,81.58966554058395
2022-12-06T21:11:23.131Z,81.2397326478803
2022-12-06T21:14:17.261Z,81.76396403712742
2022-12-06T21:17:16.832Z,81.85498333596708
2022-12-06T21:21:20.991Z,81.68194439113773
2022-12-06T21:24:19.464Z,81.56196132775725
2022-12-06T21:27:17.091Z,82.02898592268015
2022-12-06T21:31:16.886Z,81.77305020416706
2022-12-06T21:34:17.977Z,81.70193890205282
2022-12-06T21:37:17.199Z,81.85019511833026
2022-12-06T21:41:17.088Z,81.82154271013783
2022-12-06T21:44:17.293Z,81.42073170465173
2022-12-06T21:47:17.145Z,81.36834014695737
2022-12-06T21:51:17.627Z,81.31980560007032
2022-12-06T21:54:16.980Z,81.26132542806018
2022-12-06T21:57:16.997Z,81.37576761287151
2022-12-06T22:01:19.129Z,81.70996176829509
2022-12-06T22:04:16.690Z,82.02712226542864
2022-12-06T22:07:16.823Z,81.70539293419482
2022-12-06T22:11:18.332Z,81.66908259106347
2022-12-06T22:14:16.362Z,81.55473543763583
2022-12-06T22:17:16.355Z,81.92890869282601
2022-12-06T22:21:18.633Z,81.6540349467204
2022-12-06T22:24:16.969Z,81.51248123538902
2022-12-06T22:27:16.650Z,81.33887846997398
2022-12-06T22:31:18.585Z,81.36207670981581
2022-12-06T22:34:16.073Z,81.27211463519707
2022-12-06T22:37:16.078Z,81.0449075516301
2022-12-06T22:41:17.239Z,80.88780335639926
2022-12-06T22:44:18.137Z,81.17122194828886
2022-12-06T22:47:16.858Z,81.31423401250909
2022-12-06T22:51:17.804Z,80.99666944718149
2022-12-06T22:54:16.777Z,80.90790371622296
2022-12-06T22:57:16.264Z,81.10996012874267
2022-12-06T23:01:19.909Z,81.33046210576609
2022-12-06T23:04:16.935Z,81.60334903640127
2022-12-06T23:07:16.849Z,82.03017815051643
2022-12-06T23:11:18.450Z,82.1919024703165
2022-12-06T23:14:16.853Z,82.49058885401112
2022-12-06T23:17:16.774Z,82.77804127824722
2022-12-06T23:21:19.019Z,82.96210780935809
2022-12-06T23:24:17.040Z,82.59420963988102
2022-12-06T23:27:17.482Z,82.53814746489584
2022-12-06T23:31:18.668Z,82.34074416137457
2022-12-06T23:34:19.486Z,82.5601588827064
2022-12-06T23:37:16.458Z,82.69072746308025
2022-12-06T23:41:23.959Z,82.55043291791812
2022-12-06T23:44:22.187Z,82.54278890338858
2022-12-06T23:47:22.040Z,82.45596915165956
2022-12-06T23:51:19.032Z,81.70288796685632
2022-12-06T23:54:17.714Z,81.71342993007872
2022-12-06T23:57:16.644Z,81.48617423131988
